sensor_id;sensor_type;location;lat;lon;timestamp;pressure;altitude;pressure_sealevel;temperature;humidity
10606;BME280;5350;42.698;23.148;2023-06-26T00:00:07;93498.06;;;19.27;100.00
10606;BME280;5350;42.698;23.148;2023-06-26T00:02:34;93499.03;;;19.19;100.00
10606;BME280;5350;42.698;23.148;2023-06-26T00:05:00;93496.63;;;19.14;100.00
10606;BME280;5350;42.698;23.148;2023-06-26T00:07:28;93447.94;;;18.86;100.00
10606;BME280;5350;42.698;23.148;2023-06-26T00:09:56;93490.31;;;19.22;100.00
10606;BME280;5350;42.698;23.148;2023-06-26T00:12:22;93505.81;;;19.17;100.00
10606;BME280;5350;42.698;23.148;2023-06-26T00:14:51;93496.50;;;19.26;100.00
10606;BME280;5350;42.698;23.148;2023-06-26T00:17:17;93504.25;;;19.31;100.00
10606;BME280;5350;42.698;23.148;2023-06-26T00:19:44;93492.75;;;19.27;100.00
10606;BME280;5350;42.698;23.148;2023-06-26T00:22:11;93496.28;;;19.31;100.00
10606;BME280;5350;42.698;23.148;2023-06-26T00:24:38;93501.78;;;19.38;100.00
10606;BME280;5350;42.698;23.148;2023-06-26T00:27:05;93499.09;;;19.38;100.00
10606;BME280;5350;42.698;23.148;2023-06-26T00:29:31;93493.16;;;19.45;100.00
10606;BME280;5350;42.698;23.148;2023-06-26T00:31:59;93494.56;;;19.54;100.00
10606;BME280;5350;42.698;23.148;2023-06-26T00:34:26;93495.03;;;19.60;100.00
10606;BME280;5350;42.698;23.148;2023-06-26T00:36:53;93488.38;;;19.50;100.00
10606;BME280;5350;42.698;23.148;2023-06-26T00:39:19;93491.94;;;19.58;100.00
10606;BME280;5350;42.698;23.148;2023-06-26T00:41:46;93492.72;;;19.58;100.00
10606;BME280;5350;42.698;23.148;2023-06-26T00:44:13;93491.06;;;19.69;100.00
10606;BME280;5350;42.698;23.148;2023-06-26T00:46:40;93463.81;;;19.45;100.00
10606;BME280;5350;42.698;23.148;2023-06-26T00:49:08;93491.91;;;19.73;100.00
10606;BME280;5350;42.698;23.148;2023-06-26T00:51:35;93498.13;;;19.77;100.00
10606;BME280;5350;42.698;23.148;2023-06-26T00:54:01;93492.97;;;19.69;100.00
10606;BME280;5350;42.698;23.148;2023-06-26T00:56:31;93475.25;;;19.61;100.00
10606;BME280;5350;42.698;23.148;2023-06-26T00:58:58;93486.13;;;19.71;100.00
10606;BME280;5350;42.698;23.148;2023-06-26T01:01:25;93486.44;;;19.66;100.00
10606;BME280;5350;42.698;23.148;2023-06-26T01:03:53;93483.63;;;19.78;100.00
10606;BME280;5350;42.698;23.148;2023-06-26T01:06:23;93479.81;;;19.60;100.00
10606;BME280;5350;42.698;23.148;2023-06-26T01:08:50;93482.38;;;19.72;100.00
10606;BME280;5350;42.698;23.148;2023-06-26T01:11:17;93479.69;;;19.72;100.00
10606;BME280;5350;42.698;23.148;2023-06-26T01:13:45;93476.06;;;19.80;100.00
10606;BME280;5350;42.698;23.148;2023-06-26T01:16:12;93469.06;;;19.91;100.00
10606;BME280;5350;42.698;23.148;2023-06-26T01:18:41;93469.72;;;19.88;100.00
10606;BME280;5350;42.698;23.148;2023-06-26T01:21:08;93461.44;;;19.74;100.00
10606;BME280;5350;42.698;23.148;2023-06-26T01:23:47;93464.94;;;19.78;100.00
10606;BME280;5350;42.698;23.148;2023-06-26T01:26:19;93464.34;;;19.85;100.00
10606;BME280;5350;42.698;23.148;2023-06-26T01:28:47;93464.09;;;19.74;100.00
10606;BME280;5350;42.698;23.148;2023-06-26T01:31:15;93457.63;;;19.56;100.00
10606;BME280;5350;42.698;23.148;2023-06-26T01:33:42;93453.69;;;19.50;100.00
10606;BME280;5350;42.698;23.148;2023-06-26T01:36:10;93453.50;;;19.43;100.00
10606;BME280;5350;42.698;23.148;2023-06-26T01:38:36;93451.53;;;19.40;100.00
10606;BME280;5350;42.698;23.148;2023-06-26T01:41:03;93451.69;;;19.47;100.00
10606;BME280;5350;42.698;23.148;2023-06-26T01:43:39;93452.81;;;19.46;100.00
10606;BME280;5350;42.698;23.148;2023-06-26T01:46:11;93446.47;;;19.35;100.00
10606;BME280;5350;42.698;23.148;2023-06-26T01:48:48;93451.81;;;19.35;100.00
10606;BME280;5350;42.698;23.148;2023-06-26T01:51:17;93454.69;;;19.30;100.00
10606;BME280;5350;42.698;23.148;2023-06-26T01:53:53;93456.44;;;19.38;100.00
10606;BME280;5350;42.698;23.148;2023-06-26T01:56:22;93447.31;;;19.24;100.00
10606;BME280;5350;42.698;23.148;2023-06-26T01:58:51;93443.53;;;19.25;100.00
10606;BME280;5350;42.698;23.148;2023-06-26T02:01:20;93451.19;;;19.26;100.00
10606;BME280;5350;42.698;23.148;2023-06-26T02:03:47;93432.88;;;19.09;100.00
10606;BME280;5350;42.698;23.148;2023-06-26T02:06:14;93440.88;;;19.09;100.00
10606;BME280;5350;42.698;23.148;2023-06-26T02:08:41;93451.53;;;19.09;100.00
10606;BME280;5350;42.698;23.148;2023-06-26T02:11:08;93449.22;;;19.07;100.00
10606;BME280;5350;42.698;23.148;2023-06-26T02:13:35;93439.59;;;19.03;100.00
10606;BME280;5350;42.698;23.148;2023-06-26T02:16:03;93442.16;;;19.15;100.00
10606;BME280;5350;42.698;23.148;2023-06-26T02:18:30;93447.00;;;19.09;100.00
10606;BME280;5350;42.698;23.148;2023-06-26T02:20:56;93444.31;;;19.09;100.00
10606;BME280;5350;42.698;23.148;2023-06-26T02:23:23;93439.34;;;19.08;100.00
10606;BME280;5350;42.698;23.148;2023-06-26T02:25:50;93442.44;;;18.94;100.00
10606;BME280;5350;42.698;23.148;2023-06-26T02:28:17;93429.81;;;18.76;100.00
10606;BME280;5350;42.698;23.148;2023-06-26T02:30:43;93436.00;;;18.80;100.00
10606;BME280;5350;42.698;23.148;2023-06-26T02:33:11;93437.28;;;18.86;100.00
10606;BME280;5350;42.698;23.148;2023-06-26T02:35:38;93453.63;;;18.84;100.00
10606;BME280;5350;42.698;23.148;2023-06-26T02:38:05;93442.88;;;18.81;100.00
10606;BME280;5350;42.698;23.148;2023-06-26T02:40:31;93443.94;;;18.92;100.00
10606;BME280;5350;42.698;23.148;2023-06-26T02:42:58;93442.81;;;18.77;100.00
10606;BME280;5350;42.698;23.148;2023-06-26T02:45:25;93436.69;;;18.77;100.00
10606;BME280;5350;42.698;23.148;2023-06-26T02:47:52;93440.31;;;18.69;100.00
10606;BME280;5350;42.698;23.148;2023-06-26T02:50:20;93437.44;;;18.62;100.00
10606;BME280;5350;42.698;23.148;2023-06-26T02:52:46;93439.00;;;18.63;100.00
10606;BME280;5350;42.698;23.148;2023-06-26T02:55:17;93437.88;;;18.64;100.00
10606;BME280;5350;42.698;23.148;2023-06-26T02:57:44;93438.59;;;18.61;100.00
10606;BME280;5350;42.698;23.148;2023-06-26T03:00:12;93439.72;;;18.75;100.00
10606;BME280;5350;42.698;23.148;2023-06-26T03:02:39;93444.16;;;18.56;100.00
10606;BME280;5350;42.698;23.148;2023-06-26T03:05:06;93443.13;;;18.60;100.00
10606;BME280;5350;42.698;23.148;2023-06-26T03:07:35;93445.09;;;18.63;100.00
10606;BME280;5350;42.698;23.148;2023-06-26T03:10:01;93451.44;;;18.59;100.00
10606;BME280;5350;42.698;23.148;2023-06-26T03:12:28;93441.91;;;18.58;100.00
10606;BME280;5350;42.698;23.148;2023-06-26T03:14:55;93449.03;;;18.54;100.00
10606;BME280;5350;42.698;23.148;2023-06-26T03:17:21;93449.19;;;18.45;100.00
10606;BME280;5350;42.698;23.148;2023-06-26T03:19:48;93442.56;;;18.39;100.00
10606;BME280;5350;42.698;23.148;2023-06-26T03:22:15;93441.56;;;18.44;100.00
10606;BME280;5350;42.698;23.148;2023-06-26T03:24:43;93464.59;;;18.52;100.00
10606;BME280;5350;42.698;23.148;2023-06-26T03:27:10;93449.72;;;18.51;100.00
10606;BME280;5350;42.698;23.148;2023-06-26T03:29:37;93449.47;;;18.56;100.00
10606;BME280;5350;42.698;23.148;2023-06-26T03:32:04;93425.13;;;18.42;100.00
10606;BME280;5350;42.698;23.148;2023-06-26T03:34:31;93462.28;;;18.66;100.00
10606;BME280;5350;42.698;23.148;2023-06-26T03:36:57;93462.97;;;18.78;100.00
10606;BME280;5350;42.698;23.148;2023-06-26T03:39:24;93458.53;;;18.67;100.00
10606;BME280;5350;42.698;23.148;2023-06-26T03:41:52;93458.69;;;18.74;100.00
10606;BME280;5350;42.698;23.148;2023-06-26T03:44:20;93447.94;;;18.70;100.00
10606;BME280;5350;42.698;23.148;2023-06-26T03:46:48;93451.28;;;18.52;100.00
10606;BME280;5350;42.698;23.148;2023-06-26T03:49:15;93450.69;;;18.58;100.00
10606;BME280;5350;42.698;23.148;2023-06-26T03:51:42;93447.59;;;18.72;100.00
10606;BME280;5350;42.698;23.148;2023-06-26T03:54:08;93452.41;;;18.66;100.00
10606;BME280;5350;42.698;23.148;2023-06-26T03:56:35;93447.25;;;18.58;100.00
10606;BME280;5350;42.698;23.148;2023-06-26T03:59:03;93445.38;;;18.58;100.00
10606;BME280;5350;42.698;23.148;2023-06-26T04:01:30;93440.97;;;18.66;100.00
10606;BME280;5350;42.698;23.148;2023-06-26T04:03:57;93441.69;;;18.63;100.00
10606;BME280;5350;42.698;23.148;2023-06-26T04:06:23;93438.81;;;18.71;100.00
10606;BME280;5350;42.698;23.148;2023-06-26T04:08:50;93437.81;;;18.60;100.00
10606;BME280;5350;42.698;23.148;2023-06-26T04:11:17;93436.41;;;18.51;100.00
10606;BME280;5350;42.698;23.148;2023-06-26T04:13:43;93443.13;;;18.60;100.00
10606;BME280;5350;42.698;23.148;2023-06-26T04:16:11;93446.81;;;18.71;100.00
10606;BME280;5350;42.698;23.148;2023-06-26T04:18:38;93448.72;;;18.71;100.00
10606;BME280;5350;42.698;23.148;2023-06-26T04:21:07;93452.84;;;18.84;100.00
10606;BME280;5350;42.698;23.148;2023-06-26T04:23:34;93458.53;;;18.98;100.00
10606;BME280;5350;42.698;23.148;2023-06-26T04:26:01;93463.16;;;19.01;100.00
10606;BME280;5350;42.698;23.148;2023-06-26T04:28:30;93459.66;;;19.12;100.00
10606;BME280;5350;42.698;23.148;2023-06-26T04:30:57;93450.59;;;19.17;100.00
10606;BME280;5350;42.698;23.148;2023-06-26T04:33:25;93463.66;;;19.22;100.00
10606;BME280;5350;42.698;23.148;2023-06-26T04:35:52;93460.41;;;19.29;100.00
10606;BME280;5350;42.698;23.148;2023-06-26T04:38:19;93471.25;;;19.20;100.00
10606;BME280;5350;42.698;23.148;2023-06-26T04:40:47;93473.66;;;19.25;100.00
10606;BME280;5350;42.698;23.148;2023-06-26T04:43:13;93467.59;;;19.28;100.00
10606;BME280;5350;42.698;23.148;2023-06-26T04:45:40;93469.34;;;19.36;100.00
10606;BME280;5350;42.698;23.148;2023-06-26T04:48:07;93480.97;;;19.44;100.00
10606;BME280;5350;42.698;23.148;2023-06-26T04:50:35;93478.56;;;19.39;100.00
10606;BME280;5350;42.698;23.148;2023-06-26T04:53:02;93469.78;;;19.38;100.00
10606;BME280;5350;42.698;23.148;2023-06-26T04:55:29;93478.63;;;19.42;100.00
10606;BME280;5350;42.698;23.148;2023-06-26T04:57:55;93481.72;;;19.44;100.00
10606;BME280;5350;42.698;23.148;2023-06-26T05:00:22;93482.91;;;19.62;100.00
10606;BME280;5350;42.698;23.148;2023-06-26T05:02:50;93479.03;;;19.60;100.00
10606;BME280;5350;42.698;23.148;2023-06-26T05:05:24;93487.53;;;19.65;100.00
10606;BME280;5350;42.698;23.148;2023-06-26T05:07:53;93482.38;;;19.72;100.00
10606;BME280;5350;42.698;23.148;2023-06-26T05:10:20;93476.53;;;19.86;100.00
10606;BME280;5350;42.698;23.148;2023-06-26T05:12:47;93478.38;;;20.01;100.00
10606;BME280;5350;42.698;23.148;2023-06-26T05:15:14;93480.84;;;20.25;100.00
10606;BME280;5350;42.698;23.148;2023-06-26T05:17:40;93483.81;;;20.43;100.00
10606;BME280;5350;42.698;23.148;2023-06-26T05:20:08;93494.94;;;20.45;100.00
10606;BME280;5350;42.698;23.148;2023-06-26T05:22:37;93489.47;;;20.38;100.00
10606;BME280;5350;42.698;23.148;2023-06-26T05:25:08;93488.97;;;20.32;100.00
10606;BME280;5350;42.698;23.148;2023-06-26T05:27:36;93500.44;;;20.33;100.00
10606;BME280;5350;42.698;23.148;2023-06-26T05:30:04;93497.53;;;20.41;100.00
10606;BME280;5350;42.698;23.148;2023-06-26T05:32:34;93496.28;;;20.35;100.00
10606;BME280;5350;42.698;23.148;2023-06-26T05:35:02;93492.16;;;20.38;100.00
10606;BME280;5350;42.698;23.148;2023-06-26T05:37:31;93493.81;;;20.46;100.00
10606;BME280;5350;42.698;23.148;2023-06-26T05:39:58;93475.41;;;20.22;100.00
10606;BME280;5350;42.698;23.148;2023-06-26T05:42:26;93500.84;;;20.54;100.00
10606;BME280;5350;42.698;23.148;2023-06-26T05:44:53;93491.88;;;20.65;100.00
10606;BME280;5350;42.698;23.148;2023-06-26T05:47:20;93477.22;;;20.56;100.00
10606;BME280;5350;42.698;23.148;2023-06-26T05:49:47;93502.13;;;20.83;100.00
10606;BME280;5350;42.698;23.148;2023-06-26T05:52:14;93489.75;;;20.75;100.00
10606;BME280;5350;42.698;23.148;2023-06-26T05:54:41;93495.66;;;20.84;100.00
10606;BME280;5350;42.698;23.148;2023-06-26T05:57:09;93505.19;;;21.04;100.00
10606;BME280;5350;42.698;23.148;2023-06-26T05:59:39;93508.91;;;20.99;100.00
10606;BME280;5350;42.698;23.148;2023-06-26T06:02:07;93506.00;;;20.85;100.00
10606;BME280;5350;42.698;23.148;2023-06-26T06:04:33;93505.41;;;20.95;100.00
10606;BME280;5350;42.698;23.148;2023-06-26T06:07:02;93506.97;;;20.96;100.00
10606;BME280;5350;42.698;23.148;2023-06-26T06:09:29;93507.28;;;21.14;100.00
10606;BME280;5350;42.698;23.148;2023-06-26T06:11:56;93506.56;;;21.17;100.00
10606;BME280;5350;42.698;23.148;2023-06-26T06:14:22;93509.75;;;21.26;100.00
10606;BME280;5350;42.698;23.148;2023-06-26T06:16:50;93510.75;;;21.40;100.00
10606;BME280;5350;42.698;23.148;2023-06-26T06:19:17;93511.00;;;21.55;100.00
10606;BME280;5350;42.698;23.148;2023-06-26T06:21:44;93509.66;;;21.68;100.00
10606;BME280;5350;42.698;23.148;2023-06-26T06:24:11;93507.34;;;21.66;100.00
10606;BME280;5350;42.698;23.148;2023-06-26T06:26:37;93514.59;;;21.66;100.00
10606;BME280;5350;42.698;23.148;2023-06-26T06:29:04;93504.13;;;21.57;100.00
10606;BME280;5350;42.698;23.148;2023-06-26T06:31:31;93502.72;;;21.63;100.00
10606;BME280;5350;42.698;23.148;2023-06-26T06:33:59;93504.41;;;21.75;100.00
10606;BME280;5350;42.698;23.148;2023-06-26T06:36:26;93510.88;;;21.74;100.00
10606;BME280;5350;42.698;23.148;2023-06-26T06:38:53;93505.91;;;21.72;100.00
10606;BME280;5350;42.698;23.148;2023-06-26T06:41:20;93489.84;;;21.72;100.00
10606;BME280;5350;42.698;23.148;2023-06-26T06:43:47;93510.31;;;21.61;100.00
10606;BME280;5350;42.698;23.148;2023-06-26T06:46:13;93500.50;;;21.69;100.00
10606;BME280;5350;42.698;23.148;2023-06-26T06:48:40;93498.88;;;21.87;100.00
10606;BME280;5350;42.698;23.148;2023-06-26T06:51:08;93510.28;;;22.10;100.00
10606;BME280;5350;42.698;23.148;2023-06-26T06:53:35;93506.00;;;22.35;100.00
10606;BME280;5350;42.698;23.148;2023-06-26T06:56:01;93501.56;;;22.46;100.00
10606;BME280;5350;42.698;23.148;2023-06-26T06:58:28;93508.44;;;22.47;100.00
10606;BME280;5350;42.698;23.148;2023-06-26T07:00:56;93496.44;;;22.34;100.00
10606;BME280;5350;42.698;23.148;2023-06-26T07:03:23;93503.97;;;22.25;100.00
10606;BME280;5350;42.698;23.148;2023-06-26T07:05:49;93512.00;;;22.25;100.00
10606;BME280;5350;42.698;23.148;2023-06-26T07:08:17;93505.09;;;22.24;100.00
10606;BME280;5350;42.698;23.148;2023-06-26T07:10:44;93505.22;;;22.35;100.00
10606;BME280;5350;42.698;23.148;2023-06-26T07:13:11;93507.59;;;22.40;100.00
10606;BME280;5350;42.698;23.148;2023-06-26T07:15:37;93506.09;;;22.42;100.00
10606;BME280;5350;42.698;23.148;2023-06-26T07:18:04;93498.22;;;22.56;100.00
10606;BME280;5350;42.698;23.148;2023-06-26T07:20:31;93498.88;;;22.79;98.93
10606;BME280;5350;42.698;23.148;2023-06-26T07:22:57;93501.81;;;23.04;98.08
10606;BME280;5350;42.698;23.148;2023-06-26T07:25:25;93493.47;;;23.16;98.17
10606;BME280;5350;42.698;23.148;2023-06-26T07:27:52;93502.31;;;23.20;93.33
10606;BME280;5350;42.698;23.148;2023-06-26T07:30:19;93500.03;;;23.19;90.65
10606;BME280;5350;42.698;23.148;2023-06-26T07:32:46;93495.88;;;23.28;91.46
10606;BME280;5350;42.698;23.148;2023-06-26T07:35:12;93493.25;;;23.32;90.01
10606;BME280;5350;42.698;23.148;2023-06-26T07:37:39;93485.63;;;23.34;87.08
10606;BME280;5350;42.698;23.148;2023-06-26T07:40:07;93507.66;;;23.57;85.99
10606;BME280;5350;42.698;23.148;2023-06-26T07:42:35;93507.63;;;23.53;87.69
10606;BME280;5350;42.698;23.148;2023-06-26T07:45:03;93502.78;;;23.73;83.02
10606;BME280;5350;42.698;23.148;2023-06-26T07:47:35;93502.44;;;23.78;84.99
10606;BME280;5350;42.698;23.148;2023-06-26T07:50:01;93509.72;;;23.77;85.84
10606;BME280;5350;42.698;23.148;2023-06-26T07:52:28;93515.91;;;23.85;85.71
10606;BME280;5350;42.698;23.148;2023-06-26T07:54:55;93517.78;;;23.81;84.13
10606;BME280;5350;42.698;23.148;2023-06-26T07:57:22;93526.97;;;23.76;79.50
10606;BME280;5350;42.698;23.148;2023-06-26T07:59:51;93517.41;;;23.79;79.19
10606;BME280;5350;42.698;23.148;2023-06-26T08:02:17;93513.59;;;23.83;81.29
10606;BME280;5350;42.698;23.148;2023-06-26T08:04:44;93521.44;;;24.10;82.69
10606;BME280;5350;42.698;23.148;2023-06-26T08:07:11;93519.59;;;24.21;83.25
10606;BME280;5350;42.698;23.148;2023-06-26T08:09:39;93517.75;;;24.32;78.59
10606;BME280;5350;42.698;23.148;2023-06-26T08:12:06;93517.38;;;24.33;77.93
10606;BME280;5350;42.698;23.148;2023-06-26T08:14:33;93530.81;;;24.33;75.04
10606;BME280;5350;42.698;23.148;2023-06-26T08:17:01;93522.28;;;24.17;75.95
10606;BME280;5350;42.698;23.148;2023-06-26T08:19:28;93514.56;;;24.12;79.67
10606;BME280;5350;42.698;23.148;2023-06-26T08:21:54;93510.75;;;24.20;77.70
10606;BME280;5350;42.698;23.148;2023-06-26T08:24:21;93520.03;;;24.30;75.45
10606;BME280;5350;42.698;23.148;2023-06-26T08:26:48;93525.63;;;24.04;71.94
10606;BME280;5350;42.698;23.148;2023-06-26T08:29:15;93526.78;;;24.03;72.02
10606;BME280;5350;42.698;23.148;2023-06-26T08:31:42;93516.13;;;24.17;71.53
10606;BME280;5350;42.698;23.148;2023-06-26T08:34:10;93526.19;;;24.34;74.34
10606;BME280;5350;42.698;23.148;2023-06-26T08:36:37;93520.78;;;24.23;72.83
10606;BME280;5350;42.698;23.148;2023-06-26T08:39:04;93521.50;;;24.13;71.00
10606;BME280;5350;42.698;23.148;2023-06-26T08:41:32;93516.38;;;23.98;70.14
10606;BME280;5350;42.698;23.148;2023-06-26T08:43:59;93519.47;;;24.03;72.54
10606;BME280;5350;42.698;23.148;2023-06-26T08:46:28;93520.63;;;24.02;74.07
10606;BME280;5350;42.698;23.148;2023-06-26T08:48:56;93516.38;;;24.01;72.39
10606;BME280;5350;42.698;23.148;2023-06-26T08:51:27;93528.94;;;23.87;69.21
10606;BME280;5350;42.698;23.148;2023-06-26T08:53:57;93516.75;;;23.96;70.35
10606;BME280;5350;42.698;23.148;2023-06-26T08:56:25;93514.47;;;24.02;70.09
10606;BME280;5350;42.698;23.148;2023-06-26T08:58:54;93522.72;;;24.30;67.75
10606;BME280;5350;42.698;23.148;2023-06-26T09:01:21;93518.53;;;24.43;68.38
10606;BME280;5350;42.698;23.148;2023-06-26T09:03:49;93507.09;;;24.56;70.41
10606;BME280;5350;42.698;23.148;2023-06-26T09:06:17;93511.34;;;24.68;70.45
10606;BME280;5350;42.698;23.148;2023-06-26T09:08:45;93517.84;;;24.60;68.60
10606;BME280;5350;42.698;23.148;2023-06-26T09:11:12;93513.94;;;24.43;69.91
10606;BME280;5350;42.698;23.148;2023-06-26T09:13:39;93505.56;;;24.59;70.11
10606;BME280;5350;42.698;23.148;2023-06-26T09:16:07;93507.53;;;24.66;69.09
10606;BME280;5350;42.698;23.148;2023-06-26T09:18:34;93505.22;;;24.71;68.16
10606;BME280;5350;42.698;23.148;2023-06-26T09:21:06;93504.50;;;24.85;68.70
10606;BME280;5350;42.698;23.148;2023-06-26T09:23:33;93505.72;;;25.12;65.10
10606;BME280;5350;42.698;23.148;2023-06-26T09:26:03;93511.09;;;25.08;62.57
10606;BME280;5350;42.698;23.148;2023-06-26T09:28:30;93514.16;;;25.00;60.37
10606;BME280;5350;42.698;23.148;2023-06-26T09:31:01;93511.09;;;25.05;61.21
10606;BME280;5350;42.698;23.148;2023-06-26T09:33:33;93501.91;;;25.27;65.13
10606;BME280;5350;42.698;23.148;2023-06-26T09:36:01;93496.56;;;25.48;62.87
10606;BME280;5350;42.698;23.148;2023-06-26T09:38:28;93508.88;;;25.42;58.34
10606;BME280;5350;42.698;23.148;2023-06-26T09:40:54;93487.72;;;25.44;64.80
10606;BME280;5350;42.698;23.148;2023-06-26T09:43:23;93486.94;;;25.44;59.14
10606;BME280;5350;42.698;23.148;2023-06-26T09:45:51;93481.88;;;25.14;63.52
10606;BME280;5350;42.698;23.148;2023-06-26T09:48:19;93442.56;;;24.53;63.00
10606;BME280;5350;42.698;23.148;2023-06-26T09:50:46;93484.19;;;24.91;65.26
10606;BME280;5350;42.698;23.148;2023-06-26T09:53:13;93480.34;;;25.16;63.54
10606;BME280;5350;42.698;23.148;2023-06-26T09:55:41;93492.69;;;25.31;61.78
10606;BME280;5350;42.698;23.148;2023-06-26T09:58:10;93483.44;;;25.39;58.96
10606;BME280;5350;42.698;23.148;2023-06-26T10:00:41;93476.53;;;25.38;64.17
10606;BME280;5350;42.698;23.148;2023-06-26T10:03:08;93483.09;;;25.55;60.31
10606;BME280;5350;42.698;23.148;2023-06-26T10:05:35;93487.31;;;25.42;57.99
10606;BME280;5350;42.698;23.148;2023-06-26T10:08:04;93482.28;;;25.72;55.31
10606;BME280;5350;42.698;23.148;2023-06-26T10:10:32;93476.91;;;25.72;60.11
10606;BME280;5350;42.698;23.148;2023-06-26T10:13:04;93480.78;;;25.64;60.97
10606;BME280;5350;42.698;23.148;2023-06-26T10:15:34;93471.19;;;25.49;60.35
10606;BME280;5350;42.698;23.148;2023-06-26T10:18:04;93471.94;;;25.53;60.89
10606;BME280;5350;42.698;23.148;2023-06-26T10:20:32;93461.53;;;25.52;61.39
10606;BME280;5350;42.698;23.148;2023-06-26T10:23:00;93463.47;;;25.44;59.91
10606;BME280;5350;42.698;23.148;2023-06-26T10:25:31;93469.63;;;25.55;60.96
10606;BME280;5350;42.698;23.148;2023-06-26T10:27:59;93467.31;;;25.57;59.52
10606;BME280;5350;42.698;23.148;2023-06-26T10:30:31;93475.75;;;25.66;56.91
10606;BME280;5350;42.698;23.148;2023-06-26T10:33:00;93478.06;;;25.75;55.42
10606;BME280;5350;42.698;23.148;2023-06-26T10:35:30;93471.88;;;25.95;51.77
10606;BME280;5350;42.698;23.148;2023-06-26T10:38:00;93453.84;;;25.68;56.04
10606;BME280;5350;42.698;23.148;2023-06-26T10:40:28;93460.69;;;26.04;60.74
10606;BME280;5350;42.698;23.148;2023-06-26T10:43:05;93464.09;;;26.33;57.77
10606;BME280;5350;42.698;23.148;2023-06-26T10:45:33;93465.31;;;26.10;55.38
10606;BME280;5350;42.698;23.148;2023-06-26T10:48:00;93464.84;;;26.40;57.23
10606;BME280;5350;42.698;23.148;2023-06-26T10:50:30;93459.81;;;26.42;56.53
10606;BME280;5350;42.698;23.148;2023-06-26T10:53:11;93455.66;;;26.17;57.60
10606;BME280;5350;42.698;23.148;2023-06-26T10:55:42;93458.03;;;26.07;58.33
10606;BME280;5350;42.698;23.148;2023-06-26T10:58:32;93448.44;;;25.78;55.78
10606;BME280;5350;42.698;23.148;2023-06-26T11:01:19;93451.16;;;25.43;55.95
10606;BME280;5350;42.698;23.148;2023-06-26T11:03:48;93442.69;;;25.09;58.73
10606;BME280;5350;42.698;23.148;2023-06-26T11:06:18;93443.81;;;25.12;58.96
10606;BME280;5350;42.698;23.148;2023-06-26T11:08:47;93440.38;;;25.36;60.37
10606;BME280;5350;42.698;23.148;2023-06-26T11:11:14;93445.41;;;25.45;58.51
10606;BME280;5350;42.698;23.148;2023-06-26T11:13:42;93444.22;;;25.56;55.10
10606;BME280;5350;42.698;23.148;2023-06-26T11:16:09;93440.75;;;25.66;55.27
10606;BME280;5350;42.698;23.148;2023-06-26T11:18:37;93446.50;;;25.75;52.76
10606;BME280;5350;42.698;23.148;2023-06-26T11:21:06;93442.31;;;25.53;53.81
10606;BME280;5350;42.698;23.148;2023-06-26T11:23:36;93425.00;;;25.54;51.92
10606;BME280;5350;42.698;23.148;2023-06-26T11:26:16;93439.97;;;25.80;53.05
10606;BME280;5350;42.698;23.148;2023-06-26T11:28:50;93436.84;;;25.99;52.52
10606;BME280;5350;42.698;23.148;2023-06-26T11:31:24;93437.03;;;26.57;53.63
10606;BME280;5350;42.698;23.148;2023-06-26T11:33:52;93451.50;;;26.95;52.88
10606;BME280;5350;42.698;23.148;2023-06-26T11:36:19;93446.03;;;27.06;49.83
10606;BME280;5350;42.698;23.148;2023-06-26T11:38:52;93450.47;;;26.68;52.36
10606;BME280;5350;42.698;23.148;2023-06-26T11:41:19;93442.94;;;26.28;52.07
10606;BME280;5350;42.698;23.148;2023-06-26T11:43:46;93447.19;;;26.18;55.51
10606;BME280;5350;42.698;23.148;2023-06-26T11:46:12;93454.91;;;26.02;49.86
10606;BME280;5350;42.698;23.148;2023-06-26T11:48:39;93441.06;;;26.18;49.82
10606;BME280;5350;42.698;23.148;2023-06-26T11:51:06;93438.69;;;26.27;51.72
10606;BME280;5350;42.698;23.148;2023-06-26T11:53:39;93447.22;;;26.14;51.51
10606;BME280;5350;42.698;23.148;2023-06-26T11:56:09;93450.22;;;26.31;51.63
10606;BME280;5350;42.698;23.148;2023-06-26T11:58:36;93444.84;;;26.34;48.02
10606;BME280;5350;42.698;23.148;2023-06-26T12:01:03;93449.41;;;26.44;47.85
10606;BME280;5350;42.698;23.148;2023-06-26T12:03:31;93444.75;;;26.52;48.28
10606;BME280;5350;42.698;23.148;2023-06-26T12:05:58;93443.84;;;26.86;50.36
10606;BME280;5350;42.698;23.148;2023-06-26T12:08:26;93438.44;;;26.83;46.96
10606;BME280;5350;42.698;23.148;2023-06-26T12:10:53;93440.91;;;26.46;47.94
10606;BME280;5350;42.698;23.148;2023-06-26T12:13:21;93426.53;;;26.77;50.80
10606;BME280;5350;42.698;23.148;2023-06-26T12:15:48;93430.66;;;26.96;48.09
10606;BME280;5350;42.698;23.148;2023-06-26T12:18:15;93436.84;;;26.89;49.06
10606;BME280;5350;42.698;23.148;2023-06-26T12:20:42;93426.16;;;26.75;49.92
10606;BME280;5350;42.698;23.148;2023-06-26T12:23:12;93433.47;;;26.78;48.69
10606;BME280;5350;42.698;23.148;2023-06-26T12:25:39;93425.91;;;27.14;49.36
10606;BME280;5350;42.698;23.148;2023-06-26T12:28:15;93445.44;;;27.35;46.51
10606;BME280;5350;42.698;23.148;2023-06-26T12:30:47;93434.13;;;26.96;46.58
10606;BME280;5350;42.698;23.148;2023-06-26T12:33:14;93437.16;;;27.05;48.24
10606;BME280;5350;42.698;23.148;2023-06-26T12:35:41;93430.50;;;27.17;47.49
10606;BME280;5350;42.698;23.148;2023-06-26T12:38:09;93427.97;;;27.47;47.58
10606;BME280;5350;42.698;23.148;2023-06-26T12:40:45;93425.47;;;27.66;48.31
10606;BME280;5350;42.698;23.148;2023-06-26T12:43:22;93434.03;;;27.61;46.04
10606;BME280;5350;42.698;23.148;2023-06-26T12:45:55;93435.34;;;27.84;45.83
10606;BME280;5350;42.698;23.148;2023-06-26T12:48:22;93427.75;;;27.72;43.88
10606;BME280;5350;42.698;23.148;2023-06-26T12:51:08;93416.94;;;27.72;46.20
10606;BME280;5350;42.698;23.148;2023-06-26T12:53:35;93425.00;;;28.16;46.12
10606;BME280;5350;42.698;23.148;2023-06-26T12:56:02;93428.31;;;28.64;45.79
10606;BME280;5350;42.698;23.148;2023-06-26T12:58:28;93419.41;;;28.90;41.81